Terminal Aerodrome Forecast
Issued by NWS Sioux Falls, SD

Home | Current Version | Previous Version | Graphics & Text | Print | Product List | Glossary On
Versions: 1 2 3 4 5 6 7 8 9 10 11 12
851
FTUS43 KFSD 221722
TAFHON
TAF
KHON 221722Z 2218/2318 18017G26KT P6SM SKC
     FM230500 17016G24KT P6SM FEW250 WS013/18045KT
     FM231300 17014KT P6SM FEW250=

USA.gov is the U.S. government's official web portal to all federal, state and local government web resources and services.